sensor_id;sensor_type;location;lat;lon;timestamp;temperature;humidity
39751;DHT22;37579;51.074;17.004;2023-04-15T00:00:06;24.60;57.70
39751;DHT22;37579;51.074;17.004;2023-04-15T00:02:38;24.60;57.70
39751;DHT22;37579;51.074;17.004;2023-04-15T00:05:05;24.60;57.80
39751;DHT22;37579;51.074;17.004;2023-04-15T00:07:31;24.60;57.80
39751;DHT22;37579;51.074;17.004;2023-04-15T00:09:57;24.60;57.70
39751;DHT22;37579;51.074;17.004;2023-04-15T00:12:24;24.60;57.70
39751;DHT22;37579;51.074;17.004;2023-04-15T00:14:50;24.60;57.80
39751;DHT22;37579;51.074;17.004;2023-04-15T00:17:16;24.60;57.70
39751;DHT22;37579;51.074;17.004;2023-04-15T00:19:43;24.60;57.80
39751;DHT22;37579;51.074;17.004;2023-04-15T00:22:10;24.60;57.80
39751;DHT22;37579;51.074;17.004;2023-04-15T00:24:37;24.60;57.70
39751;DHT22;37579;51.074;17.004;2023-04-15T00:27:03;24.60;57.70
39751;DHT22;37579;51.074;17.004;2023-04-15T00:29:29;24.50;57.70
39751;DHT22;37579;51.074;17.004;2023-04-15T00:31:55;24.60;57.80
39751;DHT22;37579;51.074;17.004;2023-04-15T00:34:25;24.50;57.80
39751;DHT22;37579;51.074;17.004;2023-04-15T00:36:52;24.50;57.80
39751;DHT22;37579;51.074;17.004;2023-04-15T00:39:18;24.50;57.70
39751;DHT22;37579;51.074;17.004;2023-04-15T00:41:45;24.50;57.70
39751;DHT22;37579;51.074;17.004;2023-04-15T00:44:11;24.50;58.40
39751;DHT22;37579;51.074;17.004;2023-04-15T00:46:38;24.50;57.70
39751;DHT22;37579;51.074;17.004;2023-04-15T00:49:05;24.50;57.70
39751;DHT22;37579;51.074;17.004;2023-04-15T00:51:32;24.50;57.60
39751;DHT22;37579;51.074;17.004;2023-04-15T00:54:04;24.50;57.70
39751;DHT22;37579;51.074;17.004;2023-04-15T00:56:34;24.40;57.70
39751;DHT22;37579;51.074;17.004;2023-04-15T00:59:00;24.40;57.70
39751;DHT22;37579;51.074;17.004;2023-04-15T01:01:27;24.40;57.80
39751;DHT22;37579;51.074;17.004;2023-04-15T01:03:56;24.40;57.70
39751;DHT22;37579;51.074;17.004;2023-04-15T01:06:23;24.40;57.70
39751;DHT22;37579;51.074;17.004;2023-04-15T01:08:49;24.40;57.70
39751;DHT22;37579;51.074;17.004;2023-04-15T01:11:16;24.40;57.70
39751;DHT22;37579;51.074;17.004;2023-04-15T01:13:42;24.40;57.70
39751;DHT22;37579;51.074;17.004;2023-04-15T01:16:08;24.40;57.70
39751;DHT22;37579;51.074;17.004;2023-04-15T01:18:38;24.40;57.70
39751;DHT22;37579;51.074;17.004;2023-04-15T01:21:05;24.40;57.70
39751;DHT22;37579;51.074;17.004;2023-04-15T01:23:35;24.40;57.60
39751;DHT22;37579;51.074;17.004;2023-04-15T01:26:02;24.40;57.60
39751;DHT22;37579;51.074;17.004;2023-04-15T01:28:28;24.40;57.60
39751;DHT22;37579;51.074;17.004;2023-04-15T01:31:11;24.40;57.60
39751;DHT22;37579;51.074;17.004;2023-04-15T01:33:39;24.40;57.60
39751;DHT22;37579;51.074;17.004;2023-04-15T01:36:06;24.40;57.60
39751;DHT22;37579;51.074;17.004;2023-04-15T01:38:33;24.40;57.50
39751;DHT22;37579;51.074;17.004;2023-04-15T01:40:59;24.40;57.60
39751;DHT22;37579;51.074;17.004;2023-04-15T01:43:28;24.40;58.20
39751;DHT22;37579;51.074;17.004;2023-04-15T01:45:54;24.40;57.60
39751;DHT22;37579;51.074;17.004;2023-04-15T01:48:21;24.40;57.60
39751;DHT22;37579;51.074;17.004;2023-04-15T01:50:47;24.40;57.60
39751;DHT22;37579;51.074;17.004;2023-04-15T01:53:14;24.40;57.60
39751;DHT22;37579;51.074;17.004;2023-04-15T01:55:40;24.40;57.50
39751;DHT22;37579;51.074;17.004;2023-04-15T01:58:06;24.40;57.50
39751;DHT22;37579;51.074;17.004;2023-04-15T02:00:32;24.40;57.50
39751;DHT22;37579;51.074;17.004;2023-04-15T02:02:58;24.30;57.40
39751;DHT22;37579;51.074;17.004;2023-04-15T02:05:24;24.40;57.50
39751;DHT22;37579;51.074;17.004;2023-04-15T02:07:50;24.30;57.60
39751;DHT22;37579;51.074;17.004;2023-04-15T02:10:16;24.40;57.50
39751;DHT22;37579;51.074;17.004;2023-04-15T02:12:42;24.40;57.50
39751;DHT22;37579;51.074;17.004;2023-04-15T02:15:09;24.30;57.50
39751;DHT22;37579;51.074;17.004;2023-04-15T02:17:35;24.40;57.50
39751;DHT22;37579;51.074;17.004;2023-04-15T02:20:02;24.30;57.50
39751;DHT22;37579;51.074;17.004;2023-04-15T02:22:31;24.30;57.50
39751;DHT22;37579;51.074;17.004;2023-04-15T02:24:57;24.30;57.50
39751;DHT22;37579;51.074;17.004;2023-04-15T02:27:22;24.30;57.50
39751;DHT22;37579;51.074;17.004;2023-04-15T02:29:49;24.40;57.50
39751;DHT22;37579;51.074;17.004;2023-04-15T02:32:16;24.30;57.40
39751;DHT22;37579;51.074;17.004;2023-04-15T02:34:41;24.30;57.40
39751;DHT22;37579;51.074;17.004;2023-04-15T02:37:09;24.30;57.50
39751;DHT22;37579;51.074;17.004;2023-04-15T02:39:36;24.30;57.50
39751;DHT22;37579;51.074;17.004;2023-04-15T02:42:02;24.30;57.50
39751;DHT22;37579;51.074;17.004;2023-04-15T02:44:29;24.30;57.40
39751;DHT22;37579;51.074;17.004;2023-04-15T02:46:58;24.30;57.40
39751;DHT22;37579;51.074;17.004;2023-04-15T02:49:24;24.30;58.10
39751;DHT22;37579;51.074;17.004;2023-04-15T02:51:51;24.30;57.50
39751;DHT22;37579;51.074;17.004;2023-04-15T02:54:19;24.30;57.50
39751;DHT22;37579;51.074;17.004;2023-04-15T02:56:45;24.30;57.50
39751;DHT22;37579;51.074;17.004;2023-04-15T02:59:11;24.30;57.40
39751;DHT22;37579;51.074;17.004;2023-04-15T03:05:18;24.40;57.30
39751;DHT22;37579;51.074;17.004;2023-04-15T03:07:50;24.40;57.30
39751;DHT22;37579;51.074;17.004;2023-04-15T03:10:16;24.30;57.20
39751;DHT22;37579;51.074;17.004;2023-04-15T03:12:42;24.30;57.20
39751;DHT22;37579;51.074;17.004;2023-04-15T03:15:12;24.30;57.20
39751;DHT22;37579;51.074;17.004;2023-04-15T03:17:43;24.40;57.20
39751;DHT22;37579;51.074;17.004;2023-04-15T03:20:09;24.40;57.10
39751;DHT22;37579;51.074;17.004;2023-04-15T03:22:35;24.30;57.20
39751;DHT22;37579;51.074;17.004;2023-04-15T03:25:02;24.30;57.30
39751;DHT22;37579;51.074;17.004;2023-04-15T03:27:28;24.30;57.10
39751;DHT22;37579;51.074;17.004;2023-04-15T03:29:58;24.30;57.20
39751;DHT22;37579;51.074;17.004;2023-04-15T03:32:25;24.30;57.10
39751;DHT22;37579;51.074;17.004;2023-04-15T03:34:52;24.30;57.10
39751;DHT22;37579;51.074;17.004;2023-04-15T03:37:18;24.30;57.10
39751;DHT22;37579;51.074;17.004;2023-04-15T03:39:44;24.20;57.00
39751;DHT22;37579;51.074;17.004;2023-04-15T03:42:10;24.30;57.00
39751;DHT22;37579;51.074;17.004;2023-04-15T03:44:36;24.30;57.00
39751;DHT22;37579;51.074;17.004;2023-04-15T03:47:02;24.30;57.00
39751;DHT22;37579;51.074;17.004;2023-04-15T03:49:28;24.30;57.00
39751;DHT22;37579;51.074;17.004;2023-04-15T03:51:54;24.20;56.90
39751;DHT22;37579;51.074;17.004;2023-04-15T03:54:20;24.30;56.90
39751;DHT22;37579;51.074;17.004;2023-04-15T03:56:46;24.20;57.00
39751;DHT22;37579;51.074;17.004;2023-04-15T03:59:11;24.30;57.00
39751;DHT22;37579;51.074;17.004;2023-04-15T04:01:37;24.30;57.00
39751;DHT22;37579;51.074;17.004;2023-04-15T04:04:03;24.20;56.90
39751;DHT22;37579;51.074;17.004;2023-04-15T04:06:29;24.20;56.90
39751;DHT22;37579;51.074;17.004;2023-04-15T04:08:55;24.20;56.80
39751;DHT22;37579;51.074;17.004;2023-04-15T04:11:22;24.30;56.80
39751;DHT22;37579;51.074;17.004;2023-04-15T04:13:47;24.20;56.80
39751;DHT22;37579;51.074;17.004;2023-04-15T04:16:13;24.20;56.80
39751;DHT22;37579;51.074;17.004;2023-04-15T04:18:39;24.20;56.80
39751;DHT22;37579;51.074;17.004;2023-04-15T04:21:05;24.20;57.00
39751;DHT22;37579;51.074;17.004;2023-04-15T04:23:31;24.20;57.10
39751;DHT22;37579;51.074;17.004;2023-04-15T04:25:57;24.20;57.10
39751;DHT22;37579;51.074;17.004;2023-04-15T04:28:23;24.20;57.00
39751;DHT22;37579;51.074;17.004;2023-04-15T04:30:49;24.20;57.00
39751;DHT22;37579;51.074;17.004;2023-04-15T04:33:15;24.20;57.00
39751;DHT22;37579;51.074;17.004;2023-04-15T04:35:41;24.20;57.50
39751;DHT22;37579;51.074;17.004;2023-04-15T04:38:07;24.20;56.80
39751;DHT22;37579;51.074;17.004;2023-04-15T04:40:33;24.20;56.90
39751;DHT22;37579;51.074;17.004;2023-04-15T04:42:59;24.20;56.70
39751;DHT22;37579;51.074;17.004;2023-04-15T04:45:24;24.20;56.70
39751;DHT22;37579;51.074;17.004;2023-04-15T04:47:50;24.20;56.60
39751;DHT22;37579;51.074;17.004;2023-04-15T04:50:16;24.20;56.60
39751;DHT22;37579;51.074;17.004;2023-04-15T04:52:42;24.20;56.60
39751;DHT22;37579;51.074;17.004;2023-04-15T04:55:08;24.20;56.60
39751;DHT22;37579;51.074;17.004;2023-04-15T04:57:34;24.20;56.60
39751;DHT22;37579;51.074;17.004;2023-04-15T05:00:05;24.20;56.50
39751;DHT22;37579;51.074;17.004;2023-04-15T05:02:32;24.20;56.50
39751;DHT22;37579;51.074;17.004;2023-04-15T05:04:58;24.20;56.50
39751;DHT22;37579;51.074;17.004;2023-04-15T05:07:24;24.20;56.50
39751;DHT22;37579;51.074;17.004;2023-04-15T05:09:50;24.20;56.40
39751;DHT22;37579;51.074;17.004;2023-04-15T05:12:16;24.20;56.40
39751;DHT22;37579;51.074;17.004;2023-04-15T05:14:43;24.20;56.40
39751;DHT22;37579;51.074;17.004;2023-04-15T05:17:09;24.20;56.50
39751;DHT22;37579;51.074;17.004;2023-04-15T05:19:35;24.20;56.50
39751;DHT22;37579;51.074;17.004;2023-04-15T05:22:01;24.20;56.50
39751;DHT22;37579;51.074;17.004;2023-04-15T05:24:27;24.30;56.30
39751;DHT22;37579;51.074;17.004;2023-04-15T05:26:53;24.40;56.20
39751;DHT22;37579;51.074;17.004;2023-04-15T05:29:19;24.40;56.30
39751;DHT22;37579;51.074;17.004;2023-04-15T05:31:45;24.40;56.10
39751;DHT22;37579;51.074;17.004;2023-04-15T05:34:11;24.50;56.00
39751;DHT22;37579;51.074;17.004;2023-04-15T05:36:37;24.50;55.90
39751;DHT22;37579;51.074;17.004;2023-04-15T05:39:02;24.60;55.80
39751;DHT22;37579;51.074;17.004;2023-04-15T05:41:28;24.60;55.70
39751;DHT22;37579;51.074;17.004;2023-04-15T05:43:54;24.60;55.60
39751;DHT22;37579;51.074;17.004;2023-04-15T05:46:20;24.60;55.60
39751;DHT22;37579;51.074;17.004;2023-04-15T05:48:47;24.70;55.60
39751;DHT22;37579;51.074;17.004;2023-04-15T05:51:13;24.70;55.60
39751;DHT22;37579;51.074;17.004;2023-04-15T05:53:38;24.70;55.50
39751;DHT22;37579;51.074;17.004;2023-04-15T05:56:06;24.80;55.40
39751;DHT22;37579;51.074;17.004;2023-04-15T05:58:32;24.70;55.30
39751;DHT22;37579;51.074;17.004;2023-04-15T06:00:58;24.80;55.20
39751;DHT22;37579;51.074;17.004;2023-04-15T06:03:24;24.80;55.20
39751;DHT22;37579;51.074;17.004;2023-04-15T06:05:50;24.80;55.10
39751;DHT22;37579;51.074;17.004;2023-04-15T06:08:15;24.80;55.10
39751;DHT22;37579;51.074;17.004;2023-04-15T06:10:41;24.80;55.00
39751;DHT22;37579;51.074;17.004;2023-04-15T06:13:07;24.80;55.00
39751;DHT22;37579;51.074;17.004;2023-04-15T06:15:33;24.80;55.10
39751;DHT22;37579;51.074;17.004;2023-04-15T06:17:59;24.70;55.10
39751;DHT22;37579;51.074;17.004;2023-04-15T06:20:25;24.70;55.10
39751;DHT22;37579;51.074;17.004;2023-04-15T06:22:51;24.70;55.10
39751;DHT22;37579;51.074;17.004;2023-04-15T06:25:17;24.60;55.10
39751;DHT22;37579;51.074;17.004;2023-04-15T06:27:42;24.60;55.10
39751;DHT22;37579;51.074;17.004;2023-04-15T06:30:09;24.60;55.20
39751;DHT22;37579;51.074;17.004;2023-04-15T06:32:34;24.60;55.10
39751;DHT22;37579;51.074;17.004;2023-04-15T06:35:00;24.60;55.20
39751;DHT22;37579;51.074;17.004;2023-04-15T06:37:27;24.60;55.20
39751;DHT22;37579;51.074;17.004;2023-04-15T06:39:52;24.60;55.20
39751;DHT22;37579;51.074;17.004;2023-04-15T06:42:18;24.60;55.20
39751;DHT22;37579;51.074;17.004;2023-04-15T06:44:46;24.60;55.20
39751;DHT22;37579;51.074;17.004;2023-04-15T06:47:12;24.60;55.20
39751;DHT22;37579;51.074;17.004;2023-04-15T06:49:39;24.50;55.10
39751;DHT22;37579;51.074;17.004;2023-04-15T06:52:05;24.60;55.20
39751;DHT22;37579;51.074;17.004;2023-04-15T06:54:31;24.60;55.10
39751;DHT22;37579;51.074;17.004;2023-04-15T06:56:57;24.60;55.10
39751;DHT22;37579;51.074;17.004;2023-04-15T06:59:23;24.50;55.10
39751;DHT22;37579;51.074;17.004;2023-04-15T07:01:49;24.50;55.10
39751;DHT22;37579;51.074;17.004;2023-04-15T07:04:17;24.50;55.10
39751;DHT22;37579;51.074;17.004;2023-04-15T07:06:43;24.40;55.10
39751;DHT22;37579;51.074;17.004;2023-04-15T07:09:09;24.40;55.10
39751;DHT22;37579;51.074;17.004;2023-04-15T07:11:35;24.40;55.10
39751;DHT22;37579;51.074;17.004;2023-04-15T07:14:01;24.40;55.20
39751;DHT22;37579;51.074;17.004;2023-04-15T07:16:27;24.40;55.20
39751;DHT22;37579;51.074;17.004;2023-04-15T07:18:52;24.50;55.20
39751;DHT22;37579;51.074;17.004;2023-04-15T07:21:18;24.40;55.20
39751;DHT22;37579;51.074;17.004;2023-04-15T07:23:44;24.40;55.30
39751;DHT22;37579;51.074;17.004;2023-04-15T07:26:10;24.40;55.90
39751;DHT22;37579;51.074;17.004;2023-04-15T07:28:36;24.40;55.50
39751;DHT22;37579;51.074;17.004;2023-04-15T07:31:02;24.50;55.50
39751;DHT22;37579;51.074;17.004;2023-04-15T07:33:30;24.60;55.50
39751;DHT22;37579;51.074;17.004;2023-04-15T07:35:56;24.60;55.60
39751;DHT22;37579;51.074;17.004;2023-04-15T07:38:21;24.60;56.50
39751;DHT22;37579;51.074;17.004;2023-04-15T07:40:48;24.70;55.60
39751;DHT22;37579;51.074;17.004;2023-04-15T07:43:14;24.70;55.40
39751;DHT22;37579;51.074;17.004;2023-04-15T07:45:41;24.80;55.40
39751;DHT22;37579;51.074;17.004;2023-04-15T07:48:07;24.80;55.50
39751;DHT22;37579;51.074;17.004;2023-04-15T07:50:33;24.80;55.50
39751;DHT22;37579;51.074;17.004;2023-04-15T07:52:59;24.80;55.70
39751;DHT22;37579;51.074;17.004;2023-04-15T07:55:25;24.80;55.70
39751;DHT22;37579;51.074;17.004;2023-04-15T07:57:52;24.80;55.80
39751;DHT22;37579;51.074;17.004;2023-04-15T08:00:18;24.80;56.00
39751;DHT22;37579;51.074;17.004;2023-04-15T08:02:45;24.80;56.30
39751;DHT22;37579;51.074;17.004;2023-04-15T08:05:13;24.80;56.60
39751;DHT22;37579;51.074;17.004;2023-04-15T08:07:39;24.90;57.00
39751;DHT22;37579;51.074;17.004;2023-04-15T08:10:06;24.90;56.90
39751;DHT22;37579;51.074;17.004;2023-04-15T08:12:32;24.80;57.90
39751;DHT22;37579;51.074;17.004;2023-04-15T08:14:59;24.80;57.50
39751;DHT22;37579;51.074;17.004;2023-04-15T08:17:25;24.80;57.70
39751;DHT22;37579;51.074;17.004;2023-04-15T08:19:51;24.80;57.50
39751;DHT22;37579;51.074;17.004;2023-04-15T08:22:18;24.80;57.20
39751;DHT22;37579;51.074;17.004;2023-04-15T08:24:44;24.80;57.10
39751;DHT22;37579;51.074;17.004;2023-04-15T08:27:11;24.80;57.20
39751;DHT22;37579;51.074;17.004;2023-04-15T08:29:37;24.80;57.00
39751;DHT22;37579;51.074;17.004;2023-04-15T08:32:03;24.80;56.80
39751;DHT22;37579;51.074;17.004;2023-04-15T08:34:31;24.80;56.70
39751;DHT22;37579;51.074;17.004;2023-04-15T08:36:57;24.80;56.50
39751;DHT22;37579;51.074;17.004;2023-04-15T08:39:23;24.90;56.50
39751;DHT22;37579;51.074;17.004;2023-04-15T08:42:16;25.00;56.30
39751;DHT22;37579;51.074;17.004;2023-04-15T08:44:42;25.00;56.00
39751;DHT22;37579;51.074;17.004;2023-04-15T08:47:12;25.00;55.70
39751;DHT22;37579;51.074;17.004;2023-04-15T08:49:41;25.00;56.40
39751;DHT22;37579;51.074;17.004;2023-04-15T08:52:08;25.00;55.70
39751;DHT22;37579;51.074;17.004;2023-04-15T08:54:35;25.10;55.80
39751;DHT22;37579;51.074;17.004;2023-04-15T08:57:01;25.10;55.70
39751;DHT22;37579;51.074;17.004;2023-04-15T08:59:31;25.10;55.70
39751;DHT22;37579;51.074;17.004;2023-04-15T09:01:57;25.10;54.60
39751;DHT22;37579;51.074;17.004;2023-04-15T09:04:23;25.10;54.50
39751;DHT22;37579;51.074;17.004;2023-04-15T09:06:49;25.10;54.50
39751;DHT22;37579;51.074;17.004;2023-04-15T09:09:16;25.10;53.10
39751;DHT22;37579;51.074;17.004;2023-04-15T09:11:42;25.10;53.30
39751;DHT22;37579;51.074;17.004;2023-04-15T09:14:08;25.10;53.20
39751;DHT22;37579;51.074;17.004;2023-04-15T09:16:59;25.00;53.40
39751;DHT22;37579;51.074;17.004;2023-04-15T09:19:25;25.00;53.10
39751;DHT22;37579;51.074;17.004;2023-04-15T09:21:53;25.00;53.20
39751;DHT22;37579;51.074;17.004;2023-04-15T09:24:21;25.00;53.40
39751;DHT22;37579;51.074;17.004;2023-04-15T09:26:51;25.00;53.50
39751;DHT22;37579;51.074;17.004;2023-04-15T09:29:19;25.00;53.30
39751;DHT22;37579;51.074;17.004;2023-04-15T09:31:45;25.00;52.90
39751;DHT22;37579;51.074;17.004;2023-04-15T09:34:11;24.90;52.60
39751;DHT22;37579;51.074;17.004;2023-04-15T09:39:12;24.90;51.40
39751;DHT22;37579;51.074;17.004;2023-04-15T09:41:38;25.00;51.30
39751;DHT22;37579;51.074;17.004;2023-04-15T09:44:05;25.00;50.00
39751;DHT22;37579;51.074;17.004;2023-04-15T09:46:44;24.90;50.10
39751;DHT22;37579;51.074;17.004;2023-04-15T09:49:11;24.90;50.20
39751;DHT22;37579;51.074;17.004;2023-04-15T09:51:37;24.80;49.90
39751;DHT22;37579;51.074;17.004;2023-04-15T09:54:04;24.80;49.50
39751;DHT22;37579;51.074;17.004;2023-04-15T09:56:37;24.70;49.20
39751;DHT22;37579;51.074;17.004;2023-04-15T09:59:06;24.70;49.90
39751;DHT22;37579;51.074;17.004;2023-04-15T10:01:33;24.60;48.60
39751;DHT22;37579;51.074;17.004;2023-04-15T10:04:02;24.70;47.90
39751;DHT22;37579;51.074;17.004;2023-04-15T10:06:29;24.60;47.60
39751;DHT22;37579;51.074;17.004;2023-04-15T10:08:56;24.60;46.70
39751;DHT22;37579;51.074;17.004;2023-04-15T10:11:23;24.60;47.10
39751;DHT22;37579;51.074;17.004;2023-04-15T10:13:50;24.60;46.90
39751;DHT22;37579;51.074;17.004;2023-04-15T10:16:19;24.60;45.50
39751;DHT22;37579;51.074;17.004;2023-04-15T10:18:55;24.60;46.00
39751;DHT22;37579;51.074;17.004;2023-04-15T10:21:22;24.50;45.70
39751;DHT22;37579;51.074;17.004;2023-04-15T10:23:48;24.60;45.00
39751;DHT22;37579;51.074;17.004;2023-04-15T10:26:15;24.60;45.30
39751;DHT22;37579;51.074;17.004;2023-04-15T10:28:45;24.60;44.40
39751;DHT22;37579;51.074;17.004;2023-04-15T10:31:14;24.60;44.30
39751;DHT22;37579;51.074;17.004;2023-04-15T10:33:42;24.60;44.20
39751;DHT22;37579;51.074;17.004;2023-04-15T10:36:09;24.50;44.60
39751;DHT22;37579;51.074;17.004;2023-04-15T10:38:41;24.40;42.80
39751;DHT22;37579;51.074;17.004;2023-04-15T10:41:26;24.50;43.70
39751;DHT22;37579;51.074;17.004;2023-04-15T10:44:03;24.40;43.80
39751;DHT22;37579;51.074;17.004;2023-04-15T10:46:38;24.40;43.60
39751;DHT22;37579;51.074;17.004;2023-04-15T10:49:08;24.40;42.10
39751;DHT22;37579;51.074;17.004;2023-04-15T10:51:37;24.40;43.10
39751;DHT22;37579;51.074;17.004;2023-04-15T10:54:15;24.30;42.40
39751;DHT22;37579;51.074;17.004;2023-04-15T10:56:43;24.30;41.70
39751;DHT22;37579;51.074;17.004;2023-04-15T10:59:09;24.20;40.80
39751;DHT22;37579;51.074;17.004;2023-04-15T11:02:01;24.20;41.60
39751;DHT22;37579;51.074;17.004;2023-04-15T11:13:25;24.20;40.90
39751;DHT22;37579;51.074;17.004;2023-04-15T11:15:45;24.10;40.70
39751;DHT22;37579;51.074;17.004;2023-04-15T11:20:39;24.20;40.60
39751;DHT22;37579;51.074;17.004;2023-04-15T11:23:06;24.10;40.70
39751;DHT22;37579;51.074;17.004;2023-04-15T11:25:33;24.10;40.30
39751;DHT22;37579;51.074;17.004;2023-04-15T11:28:00;24.10;40.50
39751;DHT22;37579;51.074;17.004;2023-04-15T11:30:31;24.00;41.30
39751;DHT22;37579;51.074;17.004;2023-04-15T11:32:59;24.20;41.60
39751;DHT22;37579;51.074;17.004;2023-04-15T11:35:26;24.20;41.60
39751;DHT22;37579;51.074;17.004;2023-04-15T11:37:51;24.10;40.40
39751;DHT22;37579;51.074;17.004;2023-04-15T11:40:28;24.00;40.70
39751;DHT22;37579;51.074;17.004;2023-04-15T11:43:16;23.90;40.90
39751;DHT22;37579;51.074;17.004;2023-04-15T11:45:54;24.00;40.60
39751;DHT22;37579;51.074;17.004;2023-04-15T11:48:23;24.10;40.90
39751;DHT22;37579;51.074;17.004;2023-04-15T11:51:00;24.10;41.70
39751;DHT22;37579;51.074;17.004;2023-04-15T11:53:43;24.10;41.20
39751;DHT22;37579;51.074;17.004;2023-04-15T11:56:21;24.10;40.30
39751;DHT22;37579;51.074;17.004;2023-04-15T11:58:48;24.10;41.10
39751;DHT22;37579;51.074;17.004;2023-04-15T12:01:17;24.10;41.30
39751;DHT22;37579;51.074;17.004;2023-04-15T12:03:47;24.10;41.20
39751;DHT22;37579;51.074;17.004;2023-04-15T12:14:23;23.90;41.00
39751;DHT22;37579;51.074;17.004;2023-04-15T12:16:52;24.00;40.80
39751;DHT22;37579;51.074;17.004;2023-04-15T12:19:24;24.10;41.20
39751;DHT22;37579;51.074;17.004;2023-04-15T12:21:52;24.10;40.70
39751;DHT22;37579;51.074;17.004;2023-04-15T12:24:21;24.10;41.10
39751;DHT22;37579;51.074;17.004;2023-04-15T12:26:55;24.10;40.30
39751;DHT22;37579;51.074;17.004;2023-04-15T12:29:29;24.00;40.40
39751;DHT22;37579;51.074;17.004;2023-04-15T12:32:03;24.10;41.30
39751;DHT22;37579;51.074;17.004;2023-04-15T12:34:31;24.00;41.40
39751;DHT22;37579;51.074;17.004;2023-04-15T12:36:58;24.10;41.90
39751;DHT22;37579;51.074;17.004;2023-04-15T12:39:26;24.10;42.00
39751;DHT22;37579;51.074;17.004;2023-04-15T12:41:53;24.10;42.60
39751;DHT22;37579;51.074;17.004;2023-04-15T12:44:20;24.10;43.40
39751;DHT22;37579;51.074;17.004;2023-04-15T12:46:47;24.10;43.40
39751;DHT22;37579;51.074;17.004;2023-04-15T12:49:13;24.20;43.70
39751;DHT22;37579;51.074;17.004;2023-04-15T12:51:41;24.20;43.50
39751;DHT22;37579;51.074;17.004;2023-04-15T12:54:06;24.20;44.00
39751;DHT22;37579;51.074;17.004;2023-04-15T12:56:32;24.20;43.40
39751;DHT22;37579;51.074;17.004;2023-04-15T12:58:58;24.20;43.70
39751;DHT22;37579;51.074;17.004;2023-04-15T13:01:24;24.20;43.70
39751;DHT22;37579;51.074;17.004;2023-04-15T13:03:51;24.20;43.50
39751;DHT22;37579;51.074;17.004;2023-04-15T13:06:16;24.20;43.70
39751;DHT22;37579;51.074;17.004;2023-04-15T13:08:42;24.20;44.00
39751;DHT22;37579;51.074;17.004;2023-04-15T13:11:08;24.20;44.20
39751;DHT22;37579;51.074;17.004;2023-04-15T13:13:35;24.30;47.30
39751;DHT22;37579;51.074;17.004;2023-04-15T13:16:00;24.00;45.10
39751;DHT22;37579;51.074;17.004;2023-04-15T13:18:27;23.80;45.60
39751;DHT22;37579;51.074;17.004;2023-04-15T13:20:53;23.90;46.30
39751;DHT22;37579;51.074;17.004;2023-04-15T13:23:19;23.80;48.00
39751;DHT22;37579;51.074;17.004;2023-04-15T13:25:45;23.80;48.80
39751;DHT22;37579;51.074;17.004;2023-04-15T13:28:11;23.80;48.80
39751;DHT22;37579;51.074;17.004;2023-04-15T13:30:38;23.40;42.10
39751;DHT22;37579;51.074;17.004;2023-04-15T13:33:04;23.40;47.70
39751;DHT22;37579;51.074;17.004;2023-04-15T13:35:31;23.50;47.30
39751;DHT22;37579;51.074;17.004;2023-04-15T13:37:57;23.60;48.30
39751;DHT22;37579;51.074;17.004;2023-04-15T13:40:23;23.60;47.90
39751;DHT22;37579;51.074;17.004;2023-04-15T13:42:50;23.70;48.40
39751;DHT22;37579;51.074;17.004;2023-04-15T13:45:16;23.70;48.80
39751;DHT22;37579;51.074;17.004;2023-04-15T13:47:42;23.70;47.80
39751;DHT22;37579;51.074;17.004;2023-04-15T13:50:08;23.60;47.20
39751;DHT22;37579;51.074;17.004;2023-04-15T13:52:34;23.60;47.20
39751;DHT22;37579;51.074;17.004;2023-04-15T13:55:00;23.60;47.40
39751;DHT22;37579;51.074;17.004;2023-04-15T13:57:26;23.60;47.50
39751;DHT22;37579;51.074;17.004;2023-04-15T13:59:51;23.60;47.60
39751;DHT22;37579;51.074;17.004;2023-04-15T14:02:20;23.60;47.60
39751;DHT22;37579;51.074;17.004;2023-04-15T14:04:45;23.60;47.80
39751;DHT22;37579;51.074;17.004;2023-04-15T14:07:11;23.60;47.90
39751;DHT22;37579;51.074;17.004;2023-04-15T14:09:37;23.60;48.10
39751;DHT22;37579;51.074;17.004;2023-04-15T14:12:03;23.70;48.30
39751;DHT22;37579;51.074;17.004;2023-04-15T14:14:30;23.70;48.40
39751;DHT22;37579;51.074;17.004;2023-04-15T14:16:56;23.70;48.50
39751;DHT22;37579;51.074;17.004;2023-04-15T14:19:23;23.60;48.60
39751;DHT22;37579;51.074;17.004;2023-04-15T14:21:49;23.60;48.60
39751;DHT22;37579;51.074;17.004;2023-04-15T14:24:15;23.70;48.60
39751;DHT22;37579;51.074;17.004;2023-04-15T14:26:42;23.70;48.80
39751;DHT22;37579;51.074;17.004;2023-04-15T14:29:09;23.70;49.00
39751;DHT22;37579;51.074;17.004;2023-04-15T14:31:36;23.60;48.90
39751;DHT22;37579;51.074;17.004;2023-04-15T14:34:02;23.70;48.90
39751;DHT22;37579;51.074;17.004;2023-04-15T14:36:27;23.70;49.00
39751;DHT22;37579;51.074;17.004;2023-04-15T14:38:53;23.70;49.00
39751;DHT22;37579;51.074;17.004;2023-04-15T14:41:19;23.70;49.00
39751;DHT22;37579;51.074;17.004;2023-04-15T14:43:45;23.70;49.10
39751;DHT22;37579;51.074;17.004;2023-04-15T14:46:11;23.60;48.80
39751;DHT22;37579;51.074;17.004;2023-04-15T14:48:36;23.60;48.90
39751;DHT22;37579;51.074;17.004;2023-04-15T14:51:02;23.70;49.00
39751;DHT22;37579;51.074;17.004;2023-04-15T14:53:28;23.70;48.30
39751;DHT22;37579;51.074;17.004;2023-04-15T14:55:54;23.60;47.20
39751;DHT22;37579;51.074;17.004;2023-04-15T14:58:20;23.60;47.10
39751;DHT22;37579;51.074;17.004;2023-04-15T15:00:45;23.60;47.60
39751;DHT22;37579;51.074;17.004;2023-04-15T15:03:12;23.60;48.00
39751;DHT22;37579;51.074;17.004;2023-04-15T15:05:39;23.60;47.50
39751;DHT22;37579;51.074;17.004;2023-04-15T15:08:09;23.60;47.60
39751;DHT22;37579;51.074;17.004;2023-04-15T15:10:35;23.60;47.80
39751;DHT22;37579;51.074;17.004;2023-04-15T15:13:06;23.60;47.80
39751;DHT22;37579;51.074;17.004;2023-04-15T15:15:33;23.60;47.90
39751;DHT22;37579;51.074;17.004;2023-04-15T15:17:59;23.60;48.00
39751;DHT22;37579;51.074;17.004;2023-04-15T15:20:25;23.60;48.10
39751;DHT22;37579;51.074;17.004;2023-04-15T15:22:51;23.60;48.10
39751;DHT22;37579;51.074;17.004;2023-04-15T15:25:17;23.60;48.10
39751;DHT22;37579;51.074;17.004;2023-04-15T15:27:43;23.50;48.20
39751;DHT22;37579;51.074;17.004;2023-04-15T15:30:09;23.60;48.20
39751;DHT22;37579;51.074;17.004;2023-04-15T15:32:37;23.60;48.10
39751;DHT22;37579;51.074;17.004;2023-04-15T15:35:03;23.60;48.00
39751;DHT22;37579;51.074;17.004;2023-04-15T15:37:29;23.60;48.00
39751;DHT22;37579;51.074;17.004;2023-04-15T15:39:56;23.60;48.70